ADDS METAR Data INFO
IDs: Format: Raw Decoded Include TAF

Data at: 0321 UTC 21 Sep 2017

KGDJ 210315Z AUTO 13010G15KT 10SM CLR 31/20 A2988 RMK AO2 T03120204
KGDJ 210250Z AUTO 14011G16KT 10SM CLR 32/21 A2987 RMK AO2 T03150205
KGDJ 210235Z AUTO 13010KT 10SM CLR 32/21 A2987 RMK AO2 LTG DSNT NW T03150205
KGDJ 210215Z AUTO 14011G16KT 10SM CLR 32/20 A2986 RMK AO2 T03170203
KGDJ 210155Z AUTO 13010G16KT 10SM CLR 32/20 A2985 RMK AO2 LTG DSNT NW T03200203
KGDJ 210135Z AUTO 13010G18KT 10SM CLR 33/20 A2983 RMK AO2 T03250202
KGDJ 210115Z AUTO 13009G16KT 10SM CLR 33/20 A2982 RMK AO2 T03290198
KGDJ 210055Z AUTO 14010KT 10SM CLR 33/20 A2982 RMK AO2 T03330196
KGDJ 210035Z AUTO 13010G15KT 10SM CLR 34/20 A2982 RMK AO2 T03370195
KGDJ 210015Z AUTO 12013G17KT 10SM CLR 34/20 A2981 RMK AO2 T03420195
KGDJ 202350Z AUTO 13012G18KT 10SM CLR 35/20 A2980 RMK AO2 T03520195 10375 20346
KGDJ 202335Z AUTO 14011G15KT 10SM CLR 36/19 A2980 RMK AO2 T03590190
KGDJ 202315Z AUTO 15013G17KT 10SM CLR 36/19 A2980 RMK AO2 T03630187
KGDJ 202255Z AUTO 15013G18KT 10SM CLR 37/19 A2980 RMK AO2 T03670189
KGDJ 202235Z AUTO 14012G19KT 10SM CLR 37/19 A2980 RMK AO2 T03680186
KGDJ 202215Z AUTO 13011G18KT 10SM CLR 37/19 A2980 RMK AO2 T03700189
KGDJ 202155Z AUTO 16012KT 10SM CLR 37/19 A2980 RMK AO2 T03740190
KGDJ 202135Z AUTO 15011G20KT 10SM CLR 37/19 A2980 RMK AO2 T03740190
KGDJ 202115Z AUTO 14013G20KT 10SM CLR 38/19 A2980 RMK AO2 T03750193
KGDJ 202055Z AUTO 13015KT 10SM CLR 37/19 A2981 RMK AO2 T03710194
KGDJ 202035Z AUTO 16013G19KT 10SM CLR 37/20 A2982 RMK AO2 T03710195
KGDJ 202015Z AUTO 16011KT 10SM CLR 37/20 A2983 RMK AO2 T03720197
KGDJ 201955Z AUTO 14011G20KT 10SM CLR 37/20 A2983 RMK AO2 T03650197
KGDJ 201935Z AUTO 15011G18KT 10SM CLR 37/20 A2984 RMK AO2 T03670198
KGDJ 201915Z AUTO 18010G19KT 10SM CLR 36/20 A2985 RMK AO2 T03620199
KGDJ 201855Z AUTO 16012G18KT 10SM CLR 36/20 A2985 RMK AO2 T03590203
KGDJ 201835Z AUTO 15011G16KT 10SM CLR 36/20 A2986 RMK AO2 T03560204
KGDJ 201815Z AUTO 16013G17KT 10SM CLR 35/20 A2987 RMK AO2 T03500203
KGDJ 201755Z AUTO 16010G18KT 10SM CLR 35/20 A2988 RMK AO2 T03460202 10346 20254
KGDJ 201735Z AUTO 16015G20KT 10SM CLR 34/21 A2988 RMK AO2 T03430205
KGDJ 201715Z AUTO 16013KT 10SM CLR 34/21 A2989 RMK AO2 T03440206
KGDJ 201655Z AUTO 15013KT 10SM CLR 34/21 A2989 RMK AO2 T03360208
KGDJ 201635Z AUTO 16012G18KT 10SM CLR 32/21 A2990 RMK AO2 T03220210
KGDJ 201615Z AUTO 16015G18KT 10SM CLR 32/21 A2990 RMK AO2 T03210210
KGDJ 201555Z AUTO 16010G17KT 140V200 10SM CLR 32/21 A2990 RMK AO2 T03160211
KGDJ 201535Z AUTO 16013G16KT 10SM CLR 31/22 A2990 RMK AO2 T03060215
KGDJ 201515Z AUTO 15013KT 10SM SCT024 SCT029 30/22 A2991 RMK AO2 T03000215
KGDJ 201455Z AUTO 16010KT 10SM SCT021 29/22 A2991 RMK AO2 T02920217
KGDJ 201435Z AUTO 15007G14KT 10SM SCT019 28/22 A2991 RMK AO2 T02830217
KGDJ 201415Z AUTO 15012G17KT 10SM BKN017 27/22 A2990 RMK AO2 T02740217
KGDJ 201355Z AUTO 15013G17KT 10SM BKN017 27/22 A2990 RMK AO2 T02660217
KGDJ 201335Z AUTO 16012G17KT 10SM BKN017 26/22 A2990 RMK AO2 T02600216
KGDJ 201315Z AUTO 15011KT 10SM SCT017 26/22 A2989 RMK AO2 T02580215
KGDJ 201255Z AUTO 15009G15KT 10SM CLR 26/22 A2988 RMK AO2 T02560215
KGDJ 201235Z AUTO 13009KT 10SM CLR 26/21 A2988 RMK AO2 T02550213
KGDJ 201215Z AUTO 14007KT 10SM CLR 26/21 A2988 RMK AO2 T02550212
KGDJ 201155Z AUTO 14008KT 10SM CLR 26/21 A2987 RMK AO2 T02560212 10282 20256
KGDJ 201135Z AUTO 14007KT 10SM CLR 26/21 A2987 RMK AO2 T02570213
KGDJ 201115Z AUTO 14006KT 10SM CLR 26/21 A2987 RMK AO2 T02570214
KGDJ 201055Z AUTO 15008KT 10SM CLR 26/22 A2986 RMK AO2 T02580215
KGDJ 201035Z AUTO 12005KT 10SM CLR 26/22 A2986 RMK AO2 T02600215
KGDJ 201015Z AUTO 14006KT 10SM CLR 26/22 A2985 RMK AO2 T02630215
KGDJ 200955Z AUTO 13005KT 10SM CLR 27/21 A2985 RMK AO2 T02650213
KGDJ 200935Z AUTO 13004KT 10SM CLR 27/21 A2985 RMK AO2 T02680213
KGDJ 200915Z AUTO 15008KT 10SM CLR 27/22 A2985 RMK AO2 T02700216
KGDJ 200855Z AUTO 16008KT 10SM CLR 27/22 A2985 RMK AO2 T02710216
KGDJ 200835Z AUTO 15011G16KT 10SM CLR 28/22 A2984 RMK AO2 T02750216
KGDJ 200815Z AUTO 15010G18KT 10SM CLR 28/22 A2983 RMK AO2 T02760215
KGDJ 200755Z AUTO 15012KT 10SM CLR 28/22 A2984 RMK AO2 T02770215
KGDJ 200735Z AUTO 15010G14KT 10SM CLR 28/22 A2985 RMK AO2 T02800215
KGDJ 200715Z AUTO 14009KT 10SM CLR 28/22 A2985 RMK AO2 T02800215
KGDJ 200655Z AUTO 14007KT 10SM CLR 28/22 A2985 RMK AO2 T02820215
KGDJ 200635Z AUTO 15008KT 10SM CLR 28/22 A2985 RMK AO2 T02810215
KGDJ 200615Z AUTO 13006KT 10SM CLR 28/21 A2985 RMK AO2 T02810213
KGDJ 200555Z AUTO 14006KT 10SM CLR 28/21 A2985 RMK AO2 T02810212 10336 20281 403730238
KGDJ 200535Z AUTO 14005KT 10SM CLR 28/21 A2985 RMK AO2 T02820211
KGDJ 200515Z AUTO 13006KT 10SM CLR 29/21 A2986 RMK AO2 T02850210
KGDJ 200455Z AUTO 13006KT 10SM CLR 29/21 A2986 RMK AO2 T02850210
KGDJ 200435Z AUTO 12005KT 10SM CLR 28/21 A2986 RMK AO2 T02820210
KGDJ 200415Z AUTO 11006KT 10SM CLR 28/21 A2987 RMK AO2 T02840209
KGDJ 200355Z AUTO 10006KT 10SM CLR 29/21 A2987 RMK AO2 LTG DSNT NE T02870210
KGDJ 200335Z AUTO 11005KT 10SM CLR 29/21 A2986 RMK AO2 LTG DSNT N T02880206
KGDJ 200315Z AUTO 12005KT 10SM CLR 29/21 A2986 RMK AO2 LTG DSNT N T02910205
KGDJ 200255Z AUTO 12003KT 10SM CLR 30/21 A2986 RMK AO2 LTG DSNT N T03010205
KGDJ 200235Z AUTO 11003KT 10SM CLR 30/21 A2986 RMK AO2 LTG DSNT N T03020206
KGDJ 200215Z AUTO 13004KT 10SM CLR 31/21 A2985 RMK AO2 LTG DSNT N T03090205
KGDJ 200150Z AUTO 14006KT 10SM CLR 31/21 A2983 RMK AO2 LTG DSNT N AND NW T03120205
KGDJ 200135Z AUTO 15009KT 10SM CLR 32/20 A2981 RMK AO2 LTG DSNT N AND NW T03150203
KGDJ 200115Z AUTO 14008KT 10SM CLR 32/20 A2980 RMK AO2 LTG DSNT NW T03180202
KGDJ 200055Z AUTO 15011G14KT 10SM CLR 32/20 A2980 RMK AO2 T03220200
KGDJ 200035Z AUTO 14009KT 10SM CLR 33/20 A2979 RMK AO2 T03270197
KGDJ 200015Z AUTO 15009G14KT 10SM CLR 33/20 A2979 RMK AO2 T03320195
KGDJ 192355Z AUTO 15012G16KT 10SM CLR 34/19 A2978 RMK AO2 T03370193 10373 20337
KGDJ 192335Z AUTO 16015G23KT 10SM CLR 34/19 A2978 RMK AO2 T03430189
KGDJ 192315Z AUTO 15018G22KT 10SM CLR 35/19 A2977 RMK AO2 T03510187
KGDJ 192255Z AUTO 15015G21KT 10SM CLR 36/19 A2977 RMK AO2 T03560187
KGDJ 192235Z AUTO 14017G21KT 10SM CLR 36/19 A2976 RMK AO2 T03590185
KGDJ 192215Z AUTO 16015G19KT 10SM CLR 36/19 A2976 RMK AO2 T03630185
KGDJ 192155Z AUTO 14013G20KT 10SM CLR 36/19 A2976 RMK AO2 T03640186
KGDJ 192135Z AUTO 15012G19KT 10SM CLR 37/18 A2977 RMK AO2 T03660184
KGDJ 192115Z AUTO 14012G21KT 10SM CLR 37/18 A2979 RMK AO2 T03650183
KGDJ 192055Z AUTO 15010G20KT 10SM SCT060 37/19 A2980 RMK AO2 LTG DSNT SW T03660186
KGDJ 192035Z AUTO 16009G19KT 10SM SCT060 SCT075 37/19 A2982 RMK AO2 T03690187
KGDJ 192015Z AUTO 17010G14KT 10SM SCT060 37/19 A2982 RMK AO2 T03700192
KGDJ 191955Z AUTO 16011KT 10SM SCT060 36/19 A2984 RMK AO2 T03590190
KGDJ 191935Z AUTO 18009KT 10SM SCT050 SCT065 37/19 A2985 RMK AO2 T03660192
KGDJ 191915Z AUTO 17009G17KT 140V200 10SM SCT050 SCT065 36/20 A2986 RMK AO2 T03560196
KGDJ 191855Z AUTO 15012G16KT 10SM SCT048 SCT055 35/21 A2987 RMK AO2 T03510209
KGDJ 191835Z AUTO 17012G15KT 10SM SCT046 35/21 A2988 RMK AO2 T03510209
KGDJ 191815Z AUTO 16011G17KT 10SM CLR 35/21 A2989 RMK AO2 T03460210
KGDJ 191755Z AUTO 15010G16KT 10SM CLR 34/22 A2990 RMK AO2 T03390215 10340 20238
KGDJ 191735Z AUTO 18009KT 10SM CLR 33/22 A2991 RMK AO2 T03310215
KGDJ 191715Z AUTO 16010KT 10SM CLR 32/22 A2992 RMK AO2 T03240216
KGDJ 191655Z AUTO 14008G14KT 10SM CLR 33/22 A2992 RMK AO2 T03260218
KGDJ 191635Z AUTO 15008G15KT 10SM CLR 31/22 A2993 RMK AO2 T03060223
KGDJ 191615Z AUTO 14007KT 10SM SCT022 30/22 A2995 RMK AO2 T02960224
KGDJ 191555Z AUTO 14009KT 10SM SCT022 29/22 A2995 RMK AO2 T02910223
KGDJ 191535Z AUTO 17008KT 10SM BKN018 29/22 A2995 RMK AO2 T02860222